sensor_id;sensor_type;location;lat;lon;timestamp;P1;durP1;ratioP1;P2;durP2;ratioP2
11651;SDS011;5882;48.818;9.114;2023-07-24T00:02:35;4.10;;;3.30;;
11651;SDS011;5882;48.818;9.114;2023-07-24T00:05:20;4.10;;;3.45;;
11651;SDS011;5882;48.818;9.114;2023-07-24T00:08:06;3.92;;;3.22;;
11651;SDS011;5882;48.818;9.114;2023-07-24T00:10:51;3.25;;;2.53;;
11651;SDS011;5882;48.818;9.114;2023-07-24T00:13:36;4.00;;;3.17;;
11651;SDS011;5882;48.818;9.114;2023-07-24T00:16:21;3.50;;;2.97;;
11651;SDS011;5882;48.818;9.114;2023-07-24T00:19:06;3.60;;;3.10;;
11651;SDS011;5882;48.818;9.114;2023-07-24T00:21:51;5.65;;;3.67;;
11651;SDS011;5882;48.818;9.114;2023-07-24T00:24:38;5.55;;;3.28;;
11651;SDS011;5882;48.818;9.114;2023-07-24T00:27:23;4.90;;;2.92;;
11651;SDS011;5882;48.818;9.114;2023-07-24T00:30:08;4.10;;;3.10;;
11651;SDS011;5882;48.818;9.114;2023-07-24T00:32:53;4.43;;;3.47;;
11651;SDS011;5882;48.818;9.114;2023-07-24T00:35:38;3.70;;;3.30;;
11651;SDS011;5882;48.818;9.114;2023-07-24T00:38:23;4.80;;;3.30;;
11651;SDS011;5882;48.818;9.114;2023-07-24T00:41:10;4.20;;;3.17;;
11651;SDS011;5882;48.818;9.114;2023-07-24T00:43:55;5.05;;;3.22;;
11651;SDS011;5882;48.818;9.114;2023-07-24T00:46:40;4.13;;;3.42;;
11651;SDS011;5882;48.818;9.114;2023-07-24T00:49:25;5.47;;;3.38;;
11651;SDS011;5882;48.818;9.114;2023-07-24T00:52:10;3.88;;;3.28;;
11651;SDS011;5882;48.818;9.114;2023-07-24T00:54:56;4.93;;;3.08;;
11651;SDS011;5882;48.818;9.114;2023-07-24T00:57:42;4.03;;;3.08;;
11651;SDS011;5882;48.818;9.114;2023-07-24T01:00:28;5.50;;;3.65;;
11651;SDS011;5882;48.818;9.114;2023-07-24T01:03:13;3.50;;;3.17;;
11651;SDS011;5882;48.818;9.114;2023-07-24T01:05:59;4.55;;;3.20;;
11651;SDS011;5882;48.818;9.114;2023-07-24T01:08:46;5.85;;;3.30;;
11651;SDS011;5882;48.818;9.114;2023-07-24T01:11:32;4.20;;;3.38;;
11651;SDS011;5882;48.818;9.114;2023-07-24T01:14:21;4.75;;;3.53;;
11651;SDS011;5882;48.818;9.114;2023-07-24T01:17:07;4.57;;;3.25;;
11651;SDS011;5882;48.818;9.114;2023-07-24T01:19:54;4.25;;;2.90;;
11651;SDS011;5882;48.818;9.114;2023-07-24T01:22:40;4.13;;;3.28;;
11651;SDS011;5882;48.818;9.114;2023-07-24T01:25:32;3.67;;;2.88;;
11651;SDS011;5882;48.818;9.114;2023-07-24T01:28:20;4.15;;;2.97;;
11651;SDS011;5882;48.818;9.114;2023-07-24T01:31:05;5.35;;;3.67;;
11651;SDS011;5882;48.818;9.114;2023-07-24T01:33:50;5.28;;;3.22;;
11651;SDS011;5882;48.818;9.114;2023-07-24T01:36:35;5.45;;;3.50;;
11651;SDS011;5882;48.818;9.114;2023-07-24T01:39:21;4.22;;;3.13;;
11651;SDS011;5882;48.818;9.114;2023-07-24T01:42:06;3.63;;;2.95;;
11651;SDS011;5882;48.818;9.114;2023-07-24T01:44:53;4.78;;;3.28;;
11651;SDS011;5882;48.818;9.114;2023-07-24T01:47:38;3.67;;;3.00;;
11651;SDS011;5882;48.818;9.114;2023-07-24T01:50:23;3.28;;;2.85;;
11651;SDS011;5882;48.818;9.114;2023-07-24T01:53:09;4.15;;;3.17;;
11651;SDS011;5882;48.818;9.114;2023-07-24T01:55:54;4.03;;;3.10;;
11651;SDS011;5882;48.818;9.114;2023-07-24T01:58:39;4.88;;;3.35;;
11651;SDS011;5882;48.818;9.114;2023-07-24T02:01:25;3.30;;;2.97;;
11651;SDS011;5882;48.818;9.114;2023-07-24T02:04:10;4.30;;;3.13;;
11651;SDS011;5882;48.818;9.114;2023-07-24T02:06:55;4.15;;;3.10;;
11651;SDS011;5882;48.818;9.114;2023-07-24T02:09:40;3.45;;;2.90;;
11651;SDS011;5882;48.818;9.114;2023-07-24T02:12:25;3.25;;;2.75;;
11651;SDS011;5882;48.818;9.114;2023-07-24T02:15:10;3.40;;;3.10;;
11651;SDS011;5882;48.818;9.114;2023-07-24T02:17:57;3.97;;;3.25;;
11651;SDS011;5882;48.818;9.114;2023-07-24T02:20:47;3.65;;;2.67;;
11651;SDS011;5882;48.818;9.114;2023-07-24T02:23:32;4.22;;;3.20;;
11651;SDS011;5882;48.818;9.114;2023-07-24T02:26:18;3.97;;;2.95;;
11651;SDS011;5882;48.818;9.114;2023-07-24T02:29:03;3.47;;;2.83;;
11651;SDS011;5882;48.818;9.114;2023-07-24T02:31:48;5.38;;;3.28;;
11651;SDS011;5882;48.818;9.114;2023-07-24T02:34:34;4.60;;;2.95;;
11651;SDS011;5882;48.818;9.114;2023-07-24T02:37:19;4.85;;;3.28;;
11651;SDS011;5882;48.818;9.114;2023-07-24T02:40:05;3.25;;;2.83;;
11651;SDS011;5882;48.818;9.114;2023-07-24T02:42:50;5.35;;;3.47;;
11651;SDS011;5882;48.818;9.114;2023-07-24T02:45:36;4.82;;;2.80;;
11651;SDS011;5882;48.818;9.114;2023-07-24T02:48:21;3.17;;;2.80;;
11651;SDS011;5882;48.818;9.114;2023-07-24T02:51:07;3.97;;;2.92;;
11651;SDS011;5882;48.818;9.114;2023-07-24T02:53:53;4.03;;;2.90;;
11651;SDS011;5882;48.818;9.114;2023-07-24T02:56:38;4.25;;;2.95;;
11651;SDS011;5882;48.818;9.114;2023-07-24T02:59:24;3.97;;;3.00;;
11651;SDS011;5882;48.818;9.114;2023-07-24T03:02:09;3.85;;;2.83;;
11651;SDS011;5882;48.818;9.114;2023-07-24T03:04:54;3.78;;;3.05;;
11651;SDS011;5882;48.818;9.114;2023-07-24T03:07:40;3.47;;;2.80;;
11651;SDS011;5882;48.818;9.114;2023-07-24T03:10:25;3.35;;;2.75;;
11651;SDS011;5882;48.818;9.114;2023-07-24T03:13:10;4.18;;;3.03;;
11651;SDS011;5882;48.818;9.114;2023-07-24T03:15:56;3.72;;;2.90;;
11651;SDS011;5882;48.818;9.114;2023-07-24T03:18:40;3.42;;;3.00;;
11651;SDS011;5882;48.818;9.114;2023-07-24T03:21:25;3.10;;;2.72;;
11651;SDS011;5882;48.818;9.114;2023-07-24T03:24:12;4.97;;;3.35;;
11651;SDS011;5882;48.818;9.114;2023-07-24T03:26:57;3.67;;;3.03;;
11651;SDS011;5882;48.818;9.114;2023-07-24T03:29:41;3.40;;;3.00;;
11651;SDS011;5882;48.818;9.114;2023-07-24T03:32:26;4.18;;;3.15;;
11651;SDS011;5882;48.818;9.114;2023-07-24T03:35:11;4.88;;;3.33;;
11651;SDS011;5882;48.818;9.114;2023-07-24T03:37:56;4.25;;;3.38;;
11651;SDS011;5882;48.818;9.114;2023-07-24T03:40:42;4.13;;;3.42;;
11651;SDS011;5882;48.818;9.114;2023-07-24T03:43:27;3.80;;;3.20;;
11651;SDS011;5882;48.818;9.114;2023-07-24T03:46:12;5.07;;;3.65;;
11651;SDS011;5882;48.818;9.114;2023-07-24T03:48:57;3.20;;;2.72;;
11651;SDS011;5882;48.818;9.114;2023-07-24T03:51:42;4.68;;;3.03;;
11651;SDS011;5882;48.818;9.114;2023-07-24T03:54:27;3.28;;;2.95;;
11651;SDS011;5882;48.818;9.114;2023-07-24T03:57:14;4.15;;;3.05;;
11651;SDS011;5882;48.818;9.114;2023-07-24T03:59:59;4.88;;;3.35;;
11651;SDS011;5882;48.818;9.114;2023-07-24T04:02:43;3.92;;;3.05;;
11651;SDS011;5882;48.818;9.114;2023-07-24T04:05:29;3.92;;;3.03;;
11651;SDS011;5882;48.818;9.114;2023-07-24T04:08:13;4.47;;;2.95;;
11651;SDS011;5882;48.818;9.114;2023-07-24T04:10:58;3.80;;;2.88;;
11651;SDS011;5882;48.818;9.114;2023-07-24T04:13:45;3.00;;;2.58;;
11651;SDS011;5882;48.818;9.114;2023-07-24T04:16:30;3.95;;;2.65;;
11651;SDS011;5882;48.818;9.114;2023-07-24T04:19:15;3.60;;;3.17;;
11651;SDS011;5882;48.818;9.114;2023-07-24T04:22:00;4.20;;;3.13;;
11651;SDS011;5882;48.818;9.114;2023-07-24T04:24:45;4.07;;;3.15;;
11651;SDS011;5882;48.818;9.114;2023-07-24T04:27:30;2.97;;;2.70;;
11651;SDS011;5882;48.818;9.114;2023-07-24T04:30:16;4.20;;;3.40;;
11651;SDS011;5882;48.818;9.114;2023-07-24T04:33:02;4.55;;;3.20;;
11651;SDS011;5882;48.818;9.114;2023-07-24T04:35:47;3.30;;;2.65;;
11651;SDS011;5882;48.818;9.114;2023-07-24T04:38:32;4.53;;;3.30;;
11651;SDS011;5882;48.818;9.114;2023-07-24T04:41:17;4.75;;;3.30;;
11651;SDS011;5882;48.818;9.114;2023-07-24T04:44:02;3.97;;;3.25;;
11651;SDS011;5882;48.818;9.114;2023-07-24T04:46:49;3.97;;;3.45;;
11651;SDS011;5882;48.818;9.114;2023-07-24T04:49:36;5.57;;;3.40;;
11651;SDS011;5882;48.818;9.114;2023-07-24T04:52:21;4.70;;;3.63;;
11651;SDS011;5882;48.818;9.114;2023-07-24T04:55:06;5.07;;;3.55;;
11651;SDS011;5882;48.818;9.114;2023-07-24T04:57:51;3.63;;;3.20;;
11651;SDS011;5882;48.818;9.114;2023-07-24T05:00:36;3.88;;;2.88;;
11651;SDS011;5882;48.818;9.114;2023-07-24T05:03:22;4.50;;;3.38;;
11651;SDS011;5882;48.818;9.114;2023-07-24T05:06:07;3.83;;;3.15;;
11651;SDS011;5882;48.818;9.114;2023-07-24T05:08:52;4.85;;;3.45;;
11651;SDS011;5882;48.818;9.114;2023-07-24T05:11:37;5.45;;;3.35;;
11651;SDS011;5882;48.818;9.114;2023-07-24T05:14:22;5.05;;;3.20;;
11651;SDS011;5882;48.818;9.114;2023-07-24T05:17:07;5.20;;;3.50;;
11651;SDS011;5882;48.818;9.114;2023-07-24T05:19:53;5.15;;;3.55;;
11651;SDS011;5882;48.818;9.114;2023-07-24T05:22:39;4.45;;;3.55;;
11651;SDS011;5882;48.818;9.114;2023-07-24T05:25:24;4.53;;;3.40;;
11651;SDS011;5882;48.818;9.114;2023-07-24T05:28:09;4.30;;;3.40;;
11651;SDS011;5882;48.818;9.114;2023-07-24T05:30:54;3.85;;;3.00;;
11651;SDS011;5882;48.818;9.114;2023-07-24T05:33:39;5.90;;;3.58;;
11651;SDS011;5882;48.818;9.114;2023-07-24T05:36:25;4.85;;;3.45;;
11651;SDS011;5882;48.818;9.114;2023-07-24T05:39:10;4.65;;;3.70;;
11651;SDS011;5882;48.818;9.114;2023-07-24T05:41:55;5.88;;;4.25;;
11651;SDS011;5882;48.818;9.114;2023-07-24T05:44:40;4.50;;;3.58;;
11651;SDS011;5882;48.818;9.114;2023-07-24T05:47:25;3.92;;;3.38;;
11651;SDS011;5882;48.818;9.114;2023-07-24T05:50:10;5.30;;;4.10;;
11651;SDS011;5882;48.818;9.114;2023-07-24T05:52:58;4.65;;;3.50;;
11651;SDS011;5882;48.818;9.114;2023-07-24T05:55:43;3.63;;;3.10;;
11651;SDS011;5882;48.818;9.114;2023-07-24T05:58:28;4.95;;;3.63;;
11651;SDS011;5882;48.818;9.114;2023-07-24T06:01:13;4.82;;;3.58;;
11651;SDS011;5882;48.818;9.114;2023-07-24T06:03:58;4.75;;;3.17;;
11651;SDS011;5882;48.818;9.114;2023-07-24T06:06:43;5.82;;;4.00;;
11651;SDS011;5882;48.818;9.114;2023-07-24T06:09:29;4.43;;;3.90;;
11651;SDS011;5882;48.818;9.114;2023-07-24T06:12:15;6.32;;;3.30;;
11651;SDS011;5882;48.818;9.114;2023-07-24T06:14:59;5.05;;;3.47;;
11651;SDS011;5882;48.818;9.114;2023-07-24T06:17:44;4.72;;;3.60;;
11651;SDS011;5882;48.818;9.114;2023-07-24T06:20:29;4.35;;;3.58;;
11651;SDS011;5882;48.818;9.114;2023-07-24T06:23:14;3.72;;;3.38;;
11651;SDS011;5882;48.818;9.114;2023-07-24T06:26:01;5.85;;;3.60;;
11651;SDS011;5882;48.818;9.114;2023-07-24T06:28:46;4.22;;;2.97;;
11651;SDS011;5882;48.818;9.114;2023-07-24T06:31:31;6.50;;;3.63;;
11651;SDS011;5882;48.818;9.114;2023-07-24T06:34:15;4.13;;;3.53;;
11651;SDS011;5882;48.818;9.114;2023-07-24T06:37:00;4.22;;;3.17;;
11651;SDS011;5882;48.818;9.114;2023-07-24T06:39:45;5.53;;;3.72;;
11651;SDS011;5882;48.818;9.114;2023-07-24T06:42:32;5.00;;;3.40;;
11651;SDS011;5882;48.818;9.114;2023-07-24T06:45:17;6.47;;;3.75;;
11651;SDS011;5882;48.818;9.114;2023-07-24T06:48:02;4.97;;;3.65;;
11651;SDS011;5882;48.818;9.114;2023-07-24T06:50:48;4.32;;;3.55;;
11651;SDS011;5882;48.818;9.114;2023-07-24T06:53:32;3.95;;;3.20;;
11651;SDS011;5882;48.818;9.114;2023-07-24T06:56:17;3.55;;;3.25;;
11651;SDS011;5882;48.818;9.114;2023-07-24T06:59:04;4.47;;;3.38;;
11651;SDS011;5882;48.818;9.114;2023-07-24T07:01:48;5.43;;;3.53;;
11651;SDS011;5882;48.818;9.114;2023-07-24T07:04:34;5.00;;;3.80;;
11651;SDS011;5882;48.818;9.114;2023-07-24T07:07:19;5.03;;;3.83;;
11651;SDS011;5882;48.818;9.114;2023-07-24T07:10:04;3.72;;;3.30;;
11651;SDS011;5882;48.818;9.114;2023-07-24T07:12:49;3.92;;;3.25;;
11651;SDS011;5882;48.818;9.114;2023-07-24T07:15:36;4.07;;;3.15;;
11651;SDS011;5882;48.818;9.114;2023-07-24T07:18:21;5.55;;;3.83;;
11651;SDS011;5882;48.818;9.114;2023-07-24T07:21:06;3.33;;;2.92;;
11651;SDS011;5882;48.818;9.114;2023-07-24T07:23:52;4.60;;;3.20;;
11651;SDS011;5882;48.818;9.114;2023-07-24T07:26:36;4.22;;;3.40;;
11651;SDS011;5882;48.818;9.114;2023-07-24T07:29:22;3.80;;;3.40;;
11651;SDS011;5882;48.818;9.114;2023-07-24T07:32:09;4.60;;;4.00;;
11651;SDS011;5882;48.818;9.114;2023-07-24T07:34:56;5.68;;;4.00;;
11651;SDS011;5882;48.818;9.114;2023-07-24T07:37:41;5.43;;;4.22;;
11651;SDS011;5882;48.818;9.114;2023-07-24T07:40:26;5.25;;;3.65;;
11651;SDS011;5882;48.818;9.114;2023-07-24T07:43:11;4.10;;;3.70;;
11651;SDS011;5882;48.818;9.114;2023-07-24T07:45:56;4.50;;;3.60;;
11651;SDS011;5882;48.818;9.114;2023-07-24T07:48:44;5.07;;;3.38;;
11651;SDS011;5882;48.818;9.114;2023-07-24T07:51:29;4.78;;;3.30;;
11651;SDS011;5882;48.818;9.114;2023-07-24T07:54:14;4.95;;;3.70;;
11651;SDS011;5882;48.818;9.114;2023-07-24T07:57:00;4.00;;;2.97;;
11651;SDS011;5882;48.818;9.114;2023-07-24T07:59:45;3.88;;;3.22;;
11651;SDS011;5882;48.818;9.114;2023-07-24T08:02:30;3.72;;;3.33;;
11651;SDS011;5882;48.818;9.114;2023-07-24T08:05:17;4.18;;;3.35;;
11651;SDS011;5882;48.818;9.114;2023-07-24T08:08:02;4.15;;;3.42;;
11651;SDS011;5882;48.818;9.114;2023-07-24T08:10:49;4.00;;;3.60;;
11651;SDS011;5882;48.818;9.114;2023-07-24T08:13:34;3.97;;;3.10;;
11651;SDS011;5882;48.818;9.114;2023-07-24T08:16:19;4.13;;;3.67;;
11651;SDS011;5882;48.818;9.114;2023-07-24T08:19:04;4.38;;;3.58;;
11651;SDS011;5882;48.818;9.114;2023-07-24T08:21:51;4.93;;;3.58;;
11651;SDS011;5882;48.818;9.114;2023-07-24T08:24:36;4.15;;;3.40;;
11651;SDS011;5882;48.818;9.114;2023-07-24T08:27:21;4.45;;;3.95;;
11651;SDS011;5882;48.818;9.114;2023-07-24T08:30:06;4.63;;;3.67;;
11651;SDS011;5882;48.818;9.114;2023-07-24T08:32:52;5.07;;;4.07;;
11651;SDS011;5882;48.818;9.114;2023-07-24T08:35:37;5.20;;;3.30;;
11651;SDS011;5882;48.818;9.114;2023-07-24T08:38:23;5.22;;;3.72;;
11651;SDS011;5882;48.818;9.114;2023-07-24T08:41:09;5.00;;;3.85;;
11651;SDS011;5882;48.818;9.114;2023-07-24T08:43:55;5.25;;;4.05;;
11651;SDS011;5882;48.818;9.114;2023-07-24T08:46:40;3.97;;;3.50;;
11651;SDS011;5882;48.818;9.114;2023-07-24T08:49:29;4.65;;;3.92;;
11651;SDS011;5882;48.818;9.114;2023-07-24T08:52:15;5.28;;;3.47;;
11651;SDS011;5882;48.818;9.114;2023-07-24T08:55:01;4.85;;;3.63;;
11651;SDS011;5882;48.818;9.114;2023-07-24T08:57:47;4.13;;;3.45;;
11651;SDS011;5882;48.818;9.114;2023-07-24T09:00:32;4.30;;;3.50;;
11651;SDS011;5882;48.818;9.114;2023-07-24T09:03:17;4.15;;;3.60;;
11651;SDS011;5882;48.818;9.114;2023-07-24T09:06:03;3.80;;;2.92;;
11651;SDS011;5882;48.818;9.114;2023-07-24T09:08:53;4.05;;;3.60;;
11651;SDS011;5882;48.818;9.114;2023-07-24T09:11:46;4.50;;;3.65;;
11651;SDS011;5882;48.818;9.114;2023-07-24T09:14:31;5.18;;;3.63;;
11651;SDS011;5882;48.818;9.114;2023-07-24T09:17:16;4.80;;;3.58;;
11651;SDS011;5882;48.818;9.114;2023-07-24T09:20:01;4.55;;;3.47;;
11651;SDS011;5882;48.818;9.114;2023-07-24T09:22:48;5.05;;;3.63;;
11651;SDS011;5882;48.818;9.114;2023-07-24T09:25:33;4.25;;;3.20;;
11651;SDS011;5882;48.818;9.114;2023-07-24T09:28:20;4.30;;;3.42;;
11651;SDS011;5882;48.818;9.114;2023-07-24T09:31:05;3.75;;;3.20;;
11651;SDS011;5882;48.818;9.114;2023-07-24T09:33:50;4.10;;;3.05;;
11651;SDS011;5882;48.818;9.114;2023-07-24T09:36:38;5.22;;;3.00;;
11651;SDS011;5882;48.818;9.114;2023-07-24T09:39:23;3.42;;;2.90;;
11651;SDS011;5882;48.818;9.114;2023-07-24T09:42:08;4.32;;;3.22;;
11651;SDS011;5882;48.818;9.114;2023-07-24T09:44:55;3.47;;;3.15;;
11651;SDS011;5882;48.818;9.114;2023-07-24T09:47:40;2.65;;;2.38;;
11651;SDS011;5882;48.818;9.114;2023-07-24T09:50:26;3.45;;;2.95;;
11651;SDS011;5882;48.818;9.114;2023-07-24T09:53:12;3.95;;;3.10;;
11651;SDS011;5882;48.818;9.114;2023-07-24T09:55:58;2.88;;;2.58;;
11651;SDS011;5882;48.818;9.114;2023-07-24T09:58:43;3.97;;;2.95;;
11651;SDS011;5882;48.818;9.114;2023-07-24T10:01:31;3.22;;;2.92;;
11651;SDS011;5882;48.818;9.114;2023-07-24T10:04:16;6.43;;;4.60;;
11651;SDS011;5882;48.818;9.114;2023-07-24T10:07:01;4.05;;;3.15;;
11651;SDS011;5882;48.818;9.114;2023-07-24T10:09:46;2.28;;;2.03;;
11651;SDS011;5882;48.818;9.114;2023-07-24T10:12:32;3.05;;;2.75;;
11651;SDS011;5882;48.818;9.114;2023-07-24T10:15:17;2.83;;;2.50;;
11651;SDS011;5882;48.818;9.114;2023-07-24T10:18:07;3.92;;;3.17;;
11651;SDS011;5882;48.818;9.114;2023-07-24T10:20:59;4.30;;;3.00;;
11651;SDS011;5882;48.818;9.114;2023-07-24T10:23:45;4.03;;;2.75;;
11651;SDS011;5882;48.818;9.114;2023-07-24T10:26:30;3.20;;;2.78;;
11651;SDS011;5882;48.818;9.114;2023-07-24T10:29:15;2.53;;;2.33;;
11651;SDS011;5882;48.818;9.114;2023-07-24T10:32:04;2.80;;;2.58;;
11651;SDS011;5882;48.818;9.114;2023-07-24T10:34:57;2.92;;;2.30;;
11651;SDS011;5882;48.818;9.114;2023-07-24T10:37:42;3.40;;;2.78;;
11651;SDS011;5882;48.818;9.114;2023-07-24T10:40:27;3.33;;;2.80;;
11651;SDS011;5882;48.818;9.114;2023-07-24T10:43:13;2.47;;;2.17;;
11651;SDS011;5882;48.818;9.114;2023-07-24T10:45:58;2.83;;;2.47;;
11651;SDS011;5882;48.818;9.114;2023-07-24T10:48:44;3.45;;;2.70;;
11651;SDS011;5882;48.818;9.114;2023-07-24T10:51:31;3.53;;;2.70;;
11651;SDS011;5882;48.818;9.114;2023-07-24T10:54:20;3.00;;;2.58;;
11651;SDS011;5882;48.818;9.114;2023-07-24T10:57:06;3.08;;;2.70;;
11651;SDS011;5882;48.818;9.114;2023-07-24T10:59:54;3.03;;;2.72;;
11651;SDS011;5882;48.818;9.114;2023-07-24T11:02:39;3.45;;;2.88;;
11651;SDS011;5882;48.818;9.114;2023-07-24T11:05:24;3.50;;;2.78;;
11651;SDS011;5882;48.818;9.114;2023-07-24T11:08:12;3.90;;;3.05;;
11651;SDS011;5882;48.818;9.114;2023-07-24T11:10:58;2.78;;;2.45;;
11651;SDS011;5882;48.818;9.114;2023-07-24T11:13:44;3.60;;;2.65;;
11651;SDS011;5882;48.818;9.114;2023-07-24T11:16:29;3.13;;;2.83;;
11651;SDS011;5882;48.818;9.114;2023-07-24T11:19:21;3.42;;;2.67;;
11651;SDS011;5882;48.818;9.114;2023-07-24T11:22:07;3.10;;;2.80;;
11651;SDS011;5882;48.818;9.114;2023-07-24T11:24:53;3.35;;;3.05;;
11651;SDS011;5882;48.818;9.114;2023-07-24T11:27:42;4.13;;;3.15;;
11651;SDS011;5882;48.818;9.114;2023-07-24T11:30:27;3.92;;;2.42;;
11651;SDS011;5882;48.818;9.114;2023-07-24T11:33:13;4.38;;;3.20;;
11651;SDS011;5882;48.818;9.114;2023-07-24T11:35:59;3.55;;;3.25;;
11651;SDS011;5882;48.818;9.114;2023-07-24T11:38:45;4.03;;;2.67;;
11651;SDS011;5882;48.818;9.114;2023-07-24T11:41:31;3.42;;;3.05;;
11651;SDS011;5882;48.818;9.114;2023-07-24T11:44:23;3.17;;;2.88;;
11651;SDS011;5882;48.818;9.114;2023-07-24T11:47:09;2.97;;;2.47;;
11651;SDS011;5882;48.818;9.114;2023-07-24T11:49:57;3.70;;;3.33;;
11651;SDS011;5882;48.818;9.114;2023-07-24T11:52:43;3.88;;;2.97;;
11651;SDS011;5882;48.818;9.114;2023-07-24T11:55:30;4.10;;;3.15;;
11651;SDS011;5882;48.818;9.114;2023-07-24T11:58:17;2.85;;;2.50;;
11651;SDS011;5882;48.818;9.114;2023-07-24T12:01:02;3.22;;;2.65;;
11651;SDS011;5882;48.818;9.114;2023-07-24T12:03:47;3.13;;;2.83;;
11651;SDS011;5882;48.818;9.114;2023-07-24T12:06:33;3.20;;;2.58;;
11651;SDS011;5882;48.818;9.114;2023-07-24T12:09:18;3.08;;;2.65;;
11651;SDS011;5882;48.818;9.114;2023-07-24T12:12:04;3.83;;;2.60;;
11651;SDS011;5882;48.818;9.114;2023-07-24T12:14:51;3.30;;;2.83;;
11651;SDS011;5882;48.818;9.114;2023-07-24T12:17:36;3.35;;;2.63;;
11651;SDS011;5882;48.818;9.114;2023-07-24T12:20:22;3.67;;;2.80;;
11651;SDS011;5882;48.818;9.114;2023-07-24T12:23:07;2.88;;;2.40;;
11651;SDS011;5882;48.818;9.114;2023-07-24T12:25:52;3.42;;;2.53;;
11651;SDS011;5882;48.818;9.114;2023-07-24T12:28:37;3.20;;;2.90;;
11651;SDS011;5882;48.818;9.114;2023-07-24T12:31:23;2.80;;;2.47;;
11651;SDS011;5882;48.818;9.114;2023-07-24T12:34:09;2.53;;;2.33;;
11651;SDS011;5882;48.818;9.114;2023-07-24T12:36:54;3.65;;;2.45;;
11651;SDS011;5882;48.818;9.114;2023-07-24T12:39:39;3.45;;;2.80;;
11651;SDS011;5882;48.818;9.114;2023-07-24T12:42:24;3.05;;;2.50;;
11651;SDS011;5882;48.818;9.114;2023-07-24T12:45:10;2.83;;;2.53;;
11651;SDS011;5882;48.818;9.114;2023-07-24T12:48:00;2.53;;;2.22;;
11651;SDS011;5882;48.818;9.114;2023-07-24T12:50:45;2.95;;;2.58;;
11651;SDS011;5882;48.818;9.114;2023-07-24T12:53:30;3.58;;;3.28;;
11651;SDS011;5882;48.818;9.114;2023-07-24T12:56:15;2.53;;;2.28;;
11651;SDS011;5882;48.818;9.114;2023-07-24T12:59:03;3.10;;;2.80;;
11651;SDS011;5882;48.818;9.114;2023-07-24T13:01:48;2.88;;;2.58;;
11651;SDS011;5882;48.818;9.114;2023-07-24T13:04:35;3.60;;;2.90;;
11651;SDS011;5882;48.818;9.114;2023-07-24T13:07:20;2.88;;;2.67;;
11651;SDS011;5882;48.818;9.114;2023-07-24T13:10:05;3.15;;;2.85;;
11651;SDS011;5882;48.818;9.114;2023-07-24T13:12:50;5.45;;;2.47;;
11651;SDS011;5882;48.818;9.114;2023-07-24T13:15:35;4.22;;;3.13;;
11651;SDS011;5882;48.818;9.114;2023-07-24T13:18:20;7.07;;;5.25;;
11651;SDS011;5882;48.818;9.114;2023-07-24T13:21:07;3.53;;;2.80;;
11651;SDS011;5882;48.818;9.114;2023-07-24T13:23:52;3.22;;;2.70;;
11651;SDS011;5882;48.818;9.114;2023-07-24T13:26:37;3.42;;;2.75;;
11651;SDS011;5882;48.818;9.114;2023-07-24T13:29:23;2.83;;;2.58;;
11651;SDS011;5882;48.818;9.114;2023-07-24T13:32:08;3.10;;;2.60;;
11651;SDS011;5882;48.818;9.114;2023-07-24T13:34:53;4.45;;;3.28;;
11651;SDS011;5882;48.818;9.114;2023-07-24T13:37:39;3.42;;;2.58;;
11651;SDS011;5882;48.818;9.114;2023-07-24T13:40:24;2.80;;;2.60;;
11651;SDS011;5882;48.818;9.114;2023-07-24T13:43:10;2.75;;;2.20;;
11651;SDS011;5882;48.818;9.114;2023-07-24T13:45:55;2.95;;;2.60;;
11651;SDS011;5882;48.818;9.114;2023-07-24T13:48:40;3.08;;;2.28;;
11651;SDS011;5882;48.818;9.114;2023-07-24T13:51:28;3.25;;;2.78;;
11651;SDS011;5882;48.818;9.114;2023-07-24T13:54:15;2.65;;;2.30;;
11651;SDS011;5882;48.818;9.114;2023-07-24T13:57:00;3.90;;;2.13;;
11651;SDS011;5882;48.818;9.114;2023-07-24T13:59:45;2.92;;;2.40;;
11651;SDS011;5882;48.818;9.114;2023-07-24T14:02:30;2.97;;;2.38;;
11651;SDS011;5882;48.818;9.114;2023-07-24T14:05:15;2.67;;;2.33;;
11651;SDS011;5882;48.818;9.114;2023-07-24T14:08:00;2.33;;;2.13;;
11651;SDS011;5882;48.818;9.114;2023-07-24T14:10:47;2.70;;;2.50;;
11651;SDS011;5882;48.818;9.114;2023-07-24T14:13:32;2.88;;;2.35;;
11651;SDS011;5882;48.818;9.114;2023-07-24T14:16:17;3.05;;;2.47;;
11651;SDS011;5882;48.818;9.114;2023-07-24T14:19:02;3.00;;;2.47;;
11651;SDS011;5882;48.818;9.114;2023-07-24T14:21:47;2.60;;;2.40;;
11651;SDS011;5882;48.818;9.114;2023-07-24T14:24:35;3.33;;;2.17;;
11651;SDS011;5882;48.818;9.114;2023-07-24T14:27:22;2.25;;;2.05;;
11651;SDS011;5882;48.818;9.114;2023-07-24T14:30:08;2.13;;;1.92;;
11651;SDS011;5882;48.818;9.114;2023-07-24T14:32:53;2.50;;;2.30;;
11651;SDS011;5882;48.818;9.114;2023-07-24T14:35:41;2.35;;;2.15;;
11651;SDS011;5882;48.818;9.114;2023-07-24T14:38:26;2.53;;;2.15;;
11651;SDS011;5882;48.818;9.114;2023-07-24T14:41:11;2.05;;;1.88;;
11651;SDS011;5882;48.818;9.114;2023-07-24T14:44:00;2.92;;;2.05;;
11651;SDS011;5882;48.818;9.114;2023-07-24T14:46:45;3.67;;;2.28;;
11651;SDS011;5882;48.818;9.114;2023-07-24T14:49:33;3.35;;;1.88;;
11651;SDS011;5882;48.818;9.114;2023-07-24T14:52:18;2.17;;;1.98;;
11651;SDS011;5882;48.818;9.114;2023-07-24T14:55:04;2.67;;;2.42;;
11651;SDS011;5882;48.818;9.114;2023-07-24T14:57:49;2.33;;;1.95;;
11651;SDS011;5882;48.818;9.114;2023-07-24T15:00:36;2.75;;;2.33;;
11651;SDS011;5882;48.818;9.114;2023-07-24T15:03:22;3.33;;;2.38;;
11651;SDS011;5882;48.818;9.114;2023-07-24T15:06:07;2.42;;;2.22;;
11651;SDS011;5882;48.818;9.114;2023-07-24T15:08:52;2.75;;;2.03;;
11651;SDS011;5882;48.818;9.114;2023-07-24T15:11:39;2.22;;;2.03;;
11651;SDS011;5882;48.818;9.114;2023-07-24T15:14:24;2.20;;;1.95;;
11651;SDS011;5882;48.818;9.114;2023-07-24T15:17:11;2.80;;;2.17;;
11651;SDS011;5882;48.818;9.114;2023-07-24T15:19:58;2.22;;;2.03;;
11651;SDS011;5882;48.818;9.114;2023-07-24T15:22:43;2.55;;;2.00;;
11651;SDS011;5882;48.818;9.114;2023-07-24T15:25:28;2.67;;;2.20;;
11651;SDS011;5882;48.818;9.114;2023-07-24T15:28:13;2.78;;;2.47;;
11651;SDS011;5882;48.818;9.114;2023-07-24T15:30:58;2.40;;;1.90;;
11651;SDS011;5882;48.818;9.114;2023-07-24T15:33:45;2.20;;;2.00;;
11651;SDS011;5882;48.818;9.114;2023-07-24T15:36:30;2.10;;;1.90;;
11651;SDS011;5882;48.818;9.114;2023-07-24T15:39:15;2.45;;;2.17;;
11651;SDS011;5882;48.818;9.114;2023-07-24T15:42:00;2.88;;;2.22;;
11651;SDS011;5882;48.818;9.114;2023-07-24T15:44:45;2.30;;;2.03;;
11651;SDS011;5882;48.818;9.114;2023-07-24T15:47:30;2.30;;;2.10;;
11651;SDS011;5882;48.818;9.114;2023-07-24T15:50:17;2.38;;;2.03;;
11651;SDS011;5882;48.818;9.114;2023-07-24T15:53:02;1.70;;;1.60;;
11651;SDS011;5882;48.818;9.114;2023-07-24T15:55:47;2.33;;;2.13;;
11651;SDS011;5882;48.818;9.114;2023-07-24T15:58:32;2.20;;;1.80;;
11651;SDS011;5882;48.818;9.114;2023-07-24T16:01:17;2.50;;;1.83;;
11651;SDS011;5882;48.818;9.114;2023-07-24T16:04:03;1.83;;;1.70;;
11651;SDS011;5882;48.818;9.114;2023-07-24T16:06:50;2.20;;;2.00;;
11651;SDS011;5882;48.818;9.114;2023-07-24T16:09:35;1.88;;;1.77;;
11651;SDS011;5882;48.818;9.114;2023-07-24T16:12:20;2.33;;;1.90;;
11651;SDS011;5882;48.818;9.114;2023-07-24T16:15:05;3.17;;;1.90;;
11651;SDS011;5882;48.818;9.114;2023-07-24T16:17:50;2.10;;;1.92;;
11651;SDS011;5882;48.818;9.114;2023-07-24T16:20:35;2.53;;;2.30;;
11651;SDS011;5882;48.818;9.114;2023-07-24T16:23:22;2.53;;;2.08;;
11651;SDS011;5882;48.818;9.114;2023-07-24T16:26:07;2.20;;;2.00;;
11651;SDS011;5882;48.818;9.114;2023-07-24T16:28:54;2.35;;;2.15;;
11651;SDS011;5882;48.818;9.114;2023-07-24T16:31:39;2.22;;;1.90;;
11651;SDS011;5882;48.818;9.114;2023-07-24T16:34:24;1.88;;;1.73;;
11651;SDS011;5882;48.818;9.114;2023-07-24T16:37:09;1.42;;;1.20;;
11651;SDS011;5882;48.818;9.114;2023-07-24T16:39:55;1.70;;;1.20;;
11651;SDS011;5882;48.818;9.114;2023-07-24T16:42:40;1.50;;;1.40;;
11651;SDS011;5882;48.818;9.114;2023-07-24T16:45:25;1.70;;;1.40;;
11651;SDS011;5882;48.818;9.114;2023-07-24T16:48:10;1.38;;;1.27;;
11651;SDS011;5882;48.818;9.114;2023-07-24T16:50:55;1.30;;;1.25;;
11651;SDS011;5882;48.818;9.114;2023-07-24T16:53:40;1.33;;;1.23;;